Time,TemperatureF,DewpointF,PressureIn,WindDirection,WindDirectionDegrees,WindSpeedMPH,WindSpeedGustMPH,Humidity,HourlyPrecipIn,Conditions,Clouds,dailyrainin,SoftwareType,DateUTC
2013-04-28 00:03:00,50.0,-99.9,-100.00,North,-999,-999.0,-999.0,50,0.00,,,0.00,,2013-04-28 04:03:00,
2013-04-28 00:13:00,50.0,32.0,-100.00,North,-999,-999.0,-999.0,50,0.00,,,0.00,,2013-04-28 04:13:00,
2013-04-28 00:23:00,50.0,32.0,-100.00,North,-999,-999.0,-999.0,50,0.00,,,0.00,,2013-04-28 04:23:00,
2013-04-28 00:32:00,50.0,32.0,-100.00,North,-999,-999.0,-999.0,50,0.00,,,0.00,,2013-04-28 04:32:00,
2013-04-28 00:43:00,50.0,32.0,-100.00,North,-999,-999.0,-999.0,50,0.00,,,0.00,,2013-04-28 04:43:00,
2013-04-28 01:02:00,47.0,36.0,-100.00,North,-999,0.0,-999.0,66,0.00,,,0.00,,2013-04-28 05:02:00,
2013-04-28 01:12:00,47.0,36.0,-100.00,North,-999,0.0,-999.0,66,0.00,,,0.00,,2013-04-28 05:12:00,
2013-04-28 01:22:00,47.0,36.0,-100.00,North,-999,0.0,-999.0,66,0.00,,,0.00,,2013-04-28 05:22:00,
2013-04-28 01:30:00,46.0,38.0,-100.00,North,-999,0.0,-999.0,72,0.00,,,0.00,,2013-04-28 05:30:00,
2013-04-28 01:32:00,47.0,36.0,-100.00,North,-999,0.0,-999.0,66,0.00,,,0.00,,2013-04-28 05:32:00,
2013-04-28 01:42:00,47.0,36.0,-100.00,North,-999,0.0,-999.0,66,0.00,,,0.00,,2013-04-28 05:42:00,
2013-04-28 02:01:00,46.0,38.0,-100.00,North,-999,0.0,-999.0,72,0.00,,,0.00,,2013-04-28 06:01:00,
2013-04-28 02:13:00,46.0,38.0,-100.00,North,-999,0.0,-999.0,72,0.00,,,0.00,,2013-04-28 06:13:00,
2013-04-28 02:21:00,46.0,38.0,-100.00,North,-999,0.0,-999.0,72,0.00,,,0.00,,2013-04-28 06:21:00,
2013-04-28 03:02:00,43.0,36.0,-100.00,North,-999,0.0,-999.0,76,-99.99,,,-99.99,,2013-04-28 07:02:00,
2013-04-28 03:11:00,43.0,36.0,-100.00,North,-999,0.0,-999.0,76,-99.99,,,-99.99,,2013-04-28 07:11:00,
2013-04-28 03:22:00,43.0,36.0,-100.00,North,-999,0.0,-999.0,76,-99.99,,,-99.99,,2013-04-28 07:22:00,
2013-04-28 03:32:00,43.0,36.0,-100.00,North,-999,0.0,-999.0,76,-99.99,,,-99.99,,2013-04-28 07:32:00,
2013-04-28 03:42:00,43.0,36.0,-100.00,North,-999,0.0,-999.0,76,-99.99,,,-99.99,,2013-04-28 07:42:00,
2013-04-28 04:02:00,42.0,36.0,-100.00,North,-999,-999.0,-999.0,79,0.00,,,0.00,,2013-04-28 08:02:00,
2013-04-28 04:12:00,42.0,36.0,-100.00,North,-999,-999.0,-999.0,79,0.00,,,0.00,,2013-04-28 08:12:00,
2013-04-28 04:21:00,42.0,36.0,-100.00,North,-999,-999.0,-999.0,79,0.00,,,0.00,,2013-04-28 08:21:00,
2013-04-28 04:32:00,42.0,36.0,-100.00,North,-999,-999.0,-999.0,79,0.00,,,0.00,,2013-04-28 08:32:00,
2013-04-28 04:42:00,42.0,36.0,-100.00,North,-999,-999.0,-999.0,79,0.00,,,0.00,,2013-04-28 08:42:00,
2013-04-28 05:01:00,41.0,35.0,-100.00,North,-999,0.0,-999.0,80,0.00,,,0.00,,2013-04-28 09:01:00,
2013-04-28 05:12:00,41.0,35.0,-100.00,North,-999,0.0,-999.0,80,0.00,,,0.00,,2013-04-28 09:12:00,
2013-04-28 05:22:00,41.0,35.0,-100.00,North,-999,0.0,-999.0,80,0.00,,,0.00,,2013-04-28 09:22:00,
2013-04-28 05:33:00,41.0,35.0,-100.00,North,-999,0.0,-999.0,80,0.00,,,0.00,,2013-04-28 09:33:00,
2013-04-28 05:42:00,41.0,35.0,-100.00,North,-999,0.0,-999.0,80,0.00,,,0.00,,2013-04-28 09:42:00,
2013-04-28 06:03:00,38.0,34.0,-100.00,North,-999,-999.0,-999.0,84,0.00,,,0.00,,2013-04-28 10:03:00,
2013-04-28 06:12:00,38.0,34.0,-100.00,North,-999,-999.0,-999.0,84,0.00,,,0.00,,2013-04-28 10:12:00,
2013-04-28 06:23:00,38.0,34.0,-100.00,North,-999,-999.0,-999.0,84,0.00,,,0.00,,2013-04-28 10:23:00,
2013-04-28 06:32:00,38.0,34.0,-100.00,North,-999,-999.0,-999.0,84,0.00,,,0.00,,2013-04-28 10:32:00,
2013-04-28 06:42:00,38.0,34.0,-100.00,North,-999,-999.0,-999.0,84,0.00,,,0.00,,2013-04-28 10:42:00,
2013-04-28 07:02:00,40.0,35.0,-100.00,North,-999,-999.0,-999.0,83,0.00,,,0.00,,2013-04-28 11:02:00,
2013-04-28 07:11:00,40.0,35.0,-100.00,North,-999,-999.0,-999.0,83,0.00,,,0.00,,2013-04-28 11:11:00,
2013-04-28 07:22:00,40.0,35.0,-100.00,North,-999,-999.0,-999.0,83,0.00,,,0.00,,2013-04-28 11:22:00,
2013-04-28 07:32:00,40.0,35.0,-100.00,North,-999,-999.0,-999.0,83,0.00,,,0.00,,2013-04-28 11:32:00,
2013-04-28 07:42:00,40.0,35.0,-100.00,North,-999,-999.0,-999.0,83,0.00,,,0.00,,2013-04-28 11:42:00,
2013-04-28 08:02:00,46.0,37.0,-100.00,North,-999,0.0,-999.0,71,0.00,,,0.00,,2013-04-28 12:02:00,
2013-04-28 08:12:00,46.0,37.0,-100.00,North,-999,0.0,-999.0,71,0.00,,,0.00,,2013-04-28 12:12:00,
2013-04-28 08:22:00,46.0,37.0,-100.00,North,-999,0.0,-999.0,71,0.00,,,0.00,,2013-04-28 12:22:00,
2013-04-28 08:32:00,46.0,37.0,-100.00,North,-999,0.0,-999.0,71,0.00,,,0.00,,2013-04-28 12:32:00,
2013-04-28 08:42:00,46.0,37.0,-100.00,North,-999,0.0,-999.0,71,0.00,,,0.00,,2013-04-28 12:42:00,
2013-04-28 09:02:00,49.0,38.0,-100.00,North,-999,0.0,-999.0,65,0.00,,,0.00,,2013-04-28 13:02:00,
2013-04-28 09:11:00,49.0,38.0,-100.00,North,-999,0.0,-999.0,65,0.00,,,0.00,,2013-04-28 13:11:00,
2013-04-28 09:21:00,49.0,38.0,-100.00,North,-999,0.0,-999.0,65,0.00,,,0.00,,2013-04-28 13:21:00,
2013-04-28 09:30:00,52.0,38.0,-100.00,North,-999,0.0,-999.0,58,0.00,,,0.00,,2013-04-28 13:30:00,
2013-04-28 09:32:00,49.0,38.0,-100.00,North,-999,0.0,-999.0,65,0.00,,,0.00,,2013-04-28 13:32:00,
2013-04-28 09:42:00,49.0,38.0,-100.00,North,-999,0.0,-999.0,65,0.00,,,0.00,,2013-04-28 13:42:00,
2013-04-28 10:02:00,52.0,38.0,-100.00,North,-999,0.0,-999.0,58,0.00,,,0.00,,2013-04-28 14:02:00,
2013-04-28 10:11:00,52.0,38.0,-100.00,North,-999,0.0,-999.0,58,0.00,,,0.00,,2013-04-28 14:11:00,
2013-04-28 10:22:00,52.0,38.0,-100.00,North,-999,0.0,-999.0,58,0.00,,,0.00,,2013-04-28 14:22:00,
2013-04-28 11:02:00,59.0,33.0,-100.00,North,-999,0.0,-999.0,38,-99.99,,,0.00,,2013-04-28 15:02:00,
2013-04-28 11:12:00,59.0,33.0,-100.00,North,-999,0.0,-999.0,38,-99.99,,,0.00,,2013-04-28 15:12:00,
2013-04-28 11:22:00,59.0,33.0,-100.00,North,-999,0.0,-999.0,38,-99.99,,,0.00,,2013-04-28 15:22:00,
2013-04-28 11:32:00,59.0,33.0,-100.00,North,-999,0.0,-999.0,38,-99.99,,,0.00,,2013-04-28 15:32:00,
2013-04-28 11:42:00,59.0,33.0,-100.00,North,-999,0.0,-999.0,38,-99.99,,,0.00,,2013-04-28 15:42:00,
2013-04-28 12:03:00,63.0,31.0,-100.00,North,-999,-999.0,-999.0,30,0.00,,,0.00,,2013-04-28 16:03:00,
2013-04-28 12:13:00,63.0,31.0,-100.00,North,-999,-999.0,-999.0,30,0.00,,,0.00,,2013-04-28 16:13:00,
2013-04-28 12:23:00,63.0,31.0,-100.00,North,-999,-999.0,-999.0,30,0.00,,,0.00,,2013-04-28 16:23:00,
2013-04-28 12:33:00,63.0,31.0,-100.00,North,-999,-999.0,-999.0,30,0.00,,,0.00,,2013-04-28 16:33:00,
2013-04-28 12:43:00,63.0,31.0,-100.00,North,-999,-999.0,-999.0,30,0.00,,,0.00,,2013-04-28 16:43:00,
2013-04-28 13:02:00,67.0,26.0,-100.00,North,-999,0.0,-999.0,21,0.00,,,0.00,,2013-04-28 17:02:00,
2013-04-28 13:12:00,67.0,26.0,-100.00,North,-999,0.0,-999.0,21,0.00,,,0.00,,2013-04-28 17:12:00,
2013-04-28 13:22:00,67.0,26.0,-100.00,North,-999,0.0,-999.0,21,0.00,,,0.00,,2013-04-28 17:22:00,
2013-04-28 13:32:00,67.0,26.0,-100.00,North,-999,0.0,-999.0,21,0.00,,,0.00,,2013-04-28 17:32:00,
2013-04-28 13:42:00,67.0,26.0,-100.00,North,-999,0.0,-999.0,21,0.00,,,0.00,,2013-04-28 17:42:00,
2013-04-28 14:02:00,69.0,26.0,-100.00,North,-999,-999.0,-999.0,20,0.00,,,-99.99,,2013-04-28 18:02:00,
2013-04-28 14:12:00,69.0,26.0,-100.00,North,-999,-999.0,-999.0,20,0.00,,,-99.99,,2013-04-28 18:12:00,
2013-04-28 14:22:00,69.0,26.0,-100.00,North,-999,-999.0,-999.0,20,0.00,,,-99.99,,2013-04-28 18:22:00,
2013-04-28 14:32:00,69.0,26.0,-100.00,North,-999,-999.0,-999.0,20,0.00,,,-99.99,,2013-04-28 18:32:00,
2013-04-28 14:42:00,69.0,26.0,-100.00,North,-999,-999.0,-999.0,20,0.00,,,-99.99,,2013-04-28 18:42:00,
2013-04-28 18:03:00,70.0,29.0,-100.00,North,-999,0.0,-999.0,22,-99.99,,,0.00,,2013-04-28 22:03:00,
2013-04-28 18:13:00,70.0,29.0,-100.00,North,-999,0.0,-999.0,22,-99.99,,,0.00,,2013-04-28 22:13:00,
2013-04-28 18:23:00,70.0,29.0,-100.00,North,-999,0.0,-999.0,22,-99.99,,,0.00,,2013-04-28 22:23:00,
2013-04-28 18:33:00,70.0,29.0,-100.00,North,-999,0.0,-999.0,22,-99.99,,,0.00,,2013-04-28 22:33:00,
2013-04-28 18:42:00,70.0,29.0,-100.00,North,-999,0.0,-999.0,22,-99.99,,,0.00,,2013-04-28 22:42:00,
2013-04-28 19:02:00,66.0,28.0,-100.00,North,-999,0.0,-999.0,24,0.00,,,0.00,,2013-04-28 23:02:00,
2013-04-28 19:12:00,66.0,28.0,-100.00,North,-999,0.0,-999.0,24,0.00,,,0.00,,2013-04-28 23:12:00,
2013-04-28 19:22:00,66.0,28.0,-100.00,North,-999,0.0,-999.0,24,0.00,,,0.00,,2013-04-28 23:22:00,
2013-04-28 19:32:00,66.0,28.0,-100.00,North,-999,0.0,-999.0,24,0.00,,,0.00,,2013-04-28 23:32:00,
2013-04-28 19:42:00,66.0,28.0,-100.00,North,-999,0.0,-999.0,24,0.00,,,0.00,,2013-04-28 23:42:00,
2013-04-28 20:01:00,58.0,27.0,-100.00,North,-999,0.0,-999.0,30,0.00,,,0.00,,2013-04-29 00:01:00,
2013-04-28 20:11:00,58.0,27.0,-100.00,North,-999,0.0,-999.0,30,0.00,,,0.00,,2013-04-29 00:11:00,
2013-04-28 20:22:00,58.0,27.0,-100.00,North,-999,0.0,-999.0,30,0.00,,,0.00,,2013-04-29 00:22:00,
2013-04-28 20:32:00,58.0,27.0,-100.00,North,-999,0.0,-999.0,30,0.00,,,0.00,,2013-04-29 00:32:00,
2013-04-28 20:42:00,58.0,27.0,-100.00,North,-999,0.0,-999.0,30,0.00,,,0.00,,2013-04-29 00:42:00,
2013-04-28 21:01:00,56.0,31.0,-100.00,North,-999,0.0,-999.0,39,0.00,,,-99.99,,2013-04-29 01:01:00,
2013-04-28 21:12:00,56.0,31.0,-100.00,North,-999,0.0,-999.0,39,0.00,,,-99.99,,2013-04-29 01:12:00,
2013-04-28 21:22:00,56.0,31.0,-100.00,North,-999,0.0,-999.0,39,0.00,,,-99.99,,2013-04-29 01:22:00,
2013-04-28 21:32:00,56.0,31.0,-100.00,North,-999,0.0,-999.0,39,0.00,,,-99.99,,2013-04-29 01:32:00,
2013-04-28 21:42:00,56.0,31.0,-100.00,North,-999,0.0,-999.0,39,0.00,,,-99.99,,2013-04-29 01:42:00,
2013-04-28 22:02:00,54.0,31.0,-100.00,North,-999,0.0,-999.0,41,0.00,,,0.00,,2013-04-29 02:02:00,
2013-04-28 22:11:00,54.0,31.0,-100.00,North,-999,0.0,-999.0,41,0.00,,,0.00,,2013-04-29 02:11:00,
2013-04-28 22:22:00,54.0,31.0,-100.00,North,-999,0.0,-999.0,41,0.00,,,0.00,,2013-04-29 02:22:00,
2013-04-28 22:32:00,54.0,31.0,-100.00,North,-999,0.0,-999.0,41,0.00,,,0.00,,2013-04-29 02:32:00,
2013-04-28 22:42:00,54.0,31.0,-100.00,North,-999,0.0,-999.0,41,0.00,,,0.00,,2013-04-29 02:42:00,
2013-04-28 23:02:00,52.0,33.0,-100.00,North,-999,0.0,-999.0,48,0.00,,,0.00,,2013-04-29 03:02:00,
2013-04-28 23:12:00,52.0,33.0,-100.00,North,-999,0.0,-999.0,48,0.00,,,0.00,,2013-04-29 03:12:00,
2013-04-28 23:22:00,52.0,33.0,-100.00,North,-999,0.0,-999.0,48,0.00,,,0.00,,2013-04-29 03:22:00,
2013-04-28 23:30:00,51.0,33.0,-100.00,North,-999,0.0,-999.0,51,0.00,,,0.00,,2013-04-29 03:30:00,
2013-04-28 23:33:00,52.0,33.0,-100.00,North,-999,0.0,-999.0,48,0.00,,,0.00,,2013-04-29 03:33:00,
2013-04-28 23:42:00,52.0,33.0,-100.00,North,-999,0.0,-999.0,48,0.00,,,0.00,,2013-04-29 03:42:00,